^^
Saratoga-Weather Station Historical Data
Daily Summary for February 4, 2020 Units:  Metric    English   Both
Daily Weekly Monthly Yearly Custom
  High: Low: Average:
Temperature: 25.2 °C 12.9 °C 18.4 °C
Dew Point: 13.7 °C 10.2 °C 11.7 °C
Humidity: 92% 39% 68%
Wind Speed: 14.3km/h 0km/h 3.1km/h
Wind Gust: 16.1km/h - -
Wind- - WSW
Pressure: 1016.3 hPa 1012.5 hPa -
Precipitation: 0.0 mm    
Historical Graphs
 
 
Tabular Data for February 4, 2020
Time Temperature Dew Point Pressure Wind Wind Speed Wind Gust Humidity Rainfall Rate (Hourly) solar
00:02 14.1 °C 12.5 °C 1012.5 hPa WSW 11.1 km/h 11.3 km/h 90% 0.0 mm 0 W/m2
00:07 14.1 °C 12.5 °C 1012.5 hPa West 9.7 km/h 12.9 km/h 90% 0.0 mm 0 W/m2
00:12 14.1 °C 12.5 °C 1012.5 hPa West 6.4 km/h 9.7 km/h 90% 0.0 mm 0 W/m2
00:17 14 °C 12.4 °C 1012.5 hPa West 6.4 km/h 11.3 km/h 90% 0.0 mm 0 W/m2
00:22 14 °C 12.4 °C 1012.5 hPa WSW 4.7 km/h 8 km/h 90% 0.0 mm 0 W/m2
00:27 14.1 °C 12.5 °C 1012.5 hPa SW 4.7 km/h 9.7 km/h 90% 0.0 mm 0 W/m2
00:32 14.1 °C 12.5 °C 1012.5 hPa West 4.7 km/h 6.4 km/h 90% 0.0 mm 0 W/m2
00:37 14.1 °C 12.5 °C 1012.5 hPa SW 4.7 km/h 6.4 km/h 90% 0.0 mm 0 W/m2
00:42 14.2 °C 12.6 °C 1012.5 hPa WSW 6.4 km/h 6.4 km/h 90% 0.0 mm 0 W/m2
00:47 14.2 °C 12.4 °C 1012.5 hPa West 6.4 km/h 6.4 km/h 89% 0.0 mm 0 W/m2
00:52 14.2 °C 12.4 °C 1012.5 hPa WNW 1.4 km/h 4.8 km/h 89% 0.0 mm 0 W/m2
00:57 14.2 °C 12.4 °C 1012.5 hPa WSW 3.2 km/h 6.4 km/h 89% 0.0 mm 0 W/m2
01:02 14.3 °C 12.5 °C 1012.5 hPa WSW 1.4 km/h 1.6 km/h 89% 0.0 mm 0 W/m2
01:07 14.2 °C 12.6 °C 1012.5 hPa Calm     90% 0.0 mm 0 W/m2
01:12 14 °C 12.4 °C 1012.5 hPa WSW 1.4 km/h 3.2 km/h 90% 0.0 mm 0 W/m2
01:17 13.8 °C 12.4 °C 1012.5 hPa Calm   1.6 km/h 91% 0.0 mm 0 W/m2
01:22 13.7 °C 12.3 °C 1012.9 hPa Calm     91% 0.0 mm 0 W/m2
01:27 13.6 °C 12.2 °C 1012.5 hPa WSW 1.4 km/h 3.2 km/h 91% 0.0 mm 0 W/m2
01:32 13.5 °C 12.2 °C 1012.5 hPa SW 3.2 km/h 6.4 km/h 92% 0.0 mm 0 W/m2
01:37 13.6 °C 12.3 °C 1012.5 hPa WSW 6.4 km/h 6.4 km/h 92% 0.0 mm 0 W/m2
01:42 13.7 °C 12.4 °C 1012.5 hPa West 4.7 km/h 9.7 km/h 92% 0.0 mm 0 W/m2
01:47 13.8 °C 12.4 °C 1012.5 hPa West 4.7 km/h 6.4 km/h 91% 0.0 mm 0 W/m2
01:52 13.9 °C 12.3 °C 1012.9 hPa West 3.2 km/h 6.4 km/h 90% 0.0 mm 0 W/m2
01:57 14 °C 12.4 °C 1012.5 hPa WNW 3.2 km/h 6.4 km/h 90% 0.0 mm 0 W/m2
02:02 14.1 °C 12.5 °C 1012.5 hPa West 4.7 km/h 6.4 km/h 90% 0.0 mm 0 W/m2
02:07 14.1 °C 12.3 °C 1012.9 hPa WNW 3.2 km/h 4.8 km/h 89% 0.0 mm 0 W/m2
02:12 14.1 °C 12.3 °C 1012.5 hPa WSW 3.2 km/h 9.7 km/h 89% 0.0 mm 0 W/m2
02:17 14.2 °C 12.4 °C 1012.5 hPa WNW 6.4 km/h 9.7 km/h 89% 0.0 mm 0 W/m2
02:22 14.2 °C 12.2 °C 1012.5 hPa WSW 1.4 km/h 4.8 km/h 88% 0.0 mm 0 W/m2
02:27 14.2 °C 12.2 °C 1012.5 hPa WSW 1.4 km/h 4.8 km/h 88% 0.0 mm 0 W/m2
02:32 14.2 °C 12.2 °C 1012.5 hPa West 3.2 km/h 4.8 km/h 88% 0.0 mm 0 W/m2
02:37 14.2 °C 12.2 °C 1012.9 hPa West 3.2 km/h 6.4 km/h 88% 0.0 mm 0 W/m2
02:42 14.2 °C 12.2 °C 1012.5 hPa WSW 3.2 km/h 4.8 km/h 88% 0.0 mm 0 W/m2
02:47 14.2 °C 12.1 °C 1012.9 hPa West 6.4 km/h 6.4 km/h 87% 0.0 mm 0 W/m2
02:52 14.2 °C 12.1 °C 1012.9 hPa West 3.2 km/h 6.4 km/h 87% 0.0 mm 0 W/m2
02:57 14.2 °C 12.1 °C 1012.9 hPa West 3.2 km/h 6.4 km/h 87% 0.0 mm 0 W/m2
03:02 14.2 °C 12.1 °C 1012.9 hPa West 4.7 km/h 9.7 km/h 87% 0.0 mm 0 W/m2
03:07 14.1 °C 12 °C 1012.9 hPa WNW 3.2 km/h 4.8 km/h 87% 0.0 mm 0 W/m2
03:12 14 °C 11.9 °C 1012.9 hPa West 4.7 km/h 9.7 km/h 87% 0.0 mm 0 W/m2
03:17 13.9 °C 11.9 °C 1012.9 hPa West 3.2 km/h 6.4 km/h 88% 0.0 mm 0 W/m2
03:22 13.9 °C 11.9 °C 1012.9 hPa West 1.4 km/h 4.8 km/h 88% 0.0 mm 0 W/m2
03:27 13.8 °C 11.8 °C 1012.9 hPa West 3.2 km/h 6.4 km/h 88% 0.0 mm 0 W/m2
03:32 13.8 °C 11.7 °C 1012.9 hPa West 3.2 km/h 4.8 km/h 87% 0.0 mm 0 W/m2
03:37 13.8 °C 11.7 °C 1012.9 hPa WSW 4.7 km/h 6.4 km/h 87% 0.0 mm 0 W/m2
03:42 13.7 °C 11.7 °C 1012.9 hPa WSW 1.4 km/h 3.2 km/h 88% 0.0 mm 0 W/m2
03:47 13.7 °C 11.7 °C 1012.9 hPa Calm   3.2 km/h 88% 0.0 mm 0 W/m2
03:52 13.5 °C 11.6 °C 1012.9 hPa WSW 1.4 km/h 3.2 km/h 88% 0.0 mm 0 W/m2
03:57 13.3 °C 11.5 °C 1012.9 hPa Calm     89% 0.0 mm 0 W/m2
04:02 13.2 °C 11.4 °C 1012.9 hPa WSW 1.4 km/h 3.2 km/h 89% 0.0 mm 0 W/m2
04:07 13 °C 11.4 °C 1012.9 hPa WSW 1.4 km/h 4.8 km/h 90% 0.0 mm 0 W/m2
04:12 12.9 °C 11.3 °C 1012.9 hPa WSW 3.2 km/h 6.4 km/h 90% 0.0 mm 0 W/m2
04:17 12.9 °C 11.3 °C 1012.9 hPa WSW 3.2 km/h 6.4 km/h 90% 0.0 mm 0 W/m2
04:22 13 °C 11.4 °C 1012.9 hPa SW 3.2 km/h 9.7 km/h 90% 0.0 mm 0 W/m2
04:27 13.1 °C 11.5 °C 1012.9 hPa West 1.4 km/h 4.8 km/h 90% 0.0 mm 0 W/m2
04:32 13.1 °C 11.3 °C 1012.9 hPa SW 1.4 km/h 3.2 km/h 89% 0.0 mm 0 W/m2
04:37 13.1 °C 11.3 °C 1012.9 hPa WSW 1.4 km/h 3.2 km/h 89% 0.0 mm 0 W/m2
04:42 13.1 °C 11.3 °C 1012.9 hPa WSW 3.2 km/h 6.4 km/h 89% 0.0 mm 0 W/m2
04:47 13.1 °C 11.3 °C 1012.9 hPa WSW 1.4 km/h 3.2 km/h 89% 0.0 mm 0 W/m2
04:53 13.1 °C 11.3 °C 1013.2 hPa Calm   1.6 km/h 89% 0.0 mm 0 W/m2
04:58 13 °C 11.2 °C 1013.2 hPa SW 3.2 km/h 3.2 km/h 89% 0.0 mm 0 W/m2
05:03 12.9 °C 11.1 °C 1013.2 hPa WSW 6.4 km/h 11.3 km/h 89% 0.0 mm 0 W/m2
05:08 13 °C 11.1 °C 1013.2 hPa SW 3.2 km/h 9.7 km/h 88% 0.0 mm 0 W/m2
05:13 13.1 °C 11.2 °C 1013.2 hPa WSW 4.7 km/h 6.4 km/h 88% 0.0 mm 0 W/m2
05:18 13.1 °C 11.2 °C 1013.2 hPa West 3.2 km/h 4.8 km/h 88% 0.0 mm 0 W/m2
05:23 13 °C 11.1 °C 1013.2 hPa WSW 6.4 km/h 6.4 km/h 88% 0.0 mm 0 W/m2
05:28 13.1 °C 11 °C 1013.5 hPa West 4.7 km/h 12.9 km/h 87% 0.0 mm 0 W/m2
05:33 13.1 °C 11 °C 1013.2 hPa West 6.4 km/h 9.7 km/h 87% 0.0 mm 0 W/m2
05:38 13.1 °C 11 °C 1013.5 hPa WSW 7.9 km/h 12.9 km/h 87% 0.0 mm 0 W/m2
05:43 13.2 °C 11.1 °C 1013.5 hPa West 4.7 km/h 6.4 km/h 87% 0.0 mm 0 W/m2
05:48 13.1 °C 11 °C 1013.5 hPa WSW 4.7 km/h 12.9 km/h 87% 0.0 mm 0 W/m2
05:53 13.1 °C 11 °C 1013.5 hPa WNW 3.2 km/h 14.5 km/h 87% 0.0 mm 0 W/m2
05:58 13.2 °C 11.1 °C 1013.5 hPa NW 4.7 km/h 9.7 km/h 87% 0.0 mm 0 W/m2
06:03 13.2 °C 10.9 °C 1013.5 hPa SW 3.2 km/h 8 km/h 86% 0.0 mm 0 W/m2
06:08 13.3 °C 11 °C 1013.5 hPa WSW 7.9 km/h 8 km/h 86% 0.0 mm 0 W/m2
06:13 13.3 °C 11 °C 1013.5 hPa WSW 4.7 km/h 9.7 km/h 86% 0.0 mm 0 W/m2
06:18 13.3 °C 11 °C 1013.5 hPa West 3.2 km/h 6.4 km/h 86% 0.0 mm 5 W/m2
06:23 13.2 °C 10.9 °C 1013.5 hPa WSW 4.7 km/h 4.8 km/h 86% 0.0 mm 7 W/m2
06:28 13.2 °C 10.9 °C 1013.9 hPa West 4.7 km/h 6.4 km/h 86% 0.0 mm 9 W/m2
06:33 13.3 °C 11 °C 1013.9 hPa WSW 1.4 km/h 3.2 km/h 86% 0.0 mm 14 W/m2
06:38 13.2 °C 10.9 °C 1013.9 hPa SW 3.2 km/h 6.4 km/h 86% 0.0 mm 18 W/m2
06:43 13.3 °C 11.2 °C 1013.9 hPa Calm   6.4 km/h 87% 0.0 mm 21 W/m2
06:48 13.2 °C 11.1 °C 1013.9 hPa West 3.2 km/h 6.4 km/h 87% 0.0 mm 25 W/m2
06:53 13.3 °C 11 °C 1013.9 hPa WSW 1.4 km/h 6.4 km/h 86% 0.0 mm 28 W/m2
06:58 13.4 °C 11.1 °C 1014.2 hPa West 3.2 km/h 4.8 km/h 86% 0.0 mm 32 W/m2
07:03 13.5 °C 11.2 °C 1014.2 hPa WNW 3.2 km/h 6.4 km/h 86% 0.0 mm 35 W/m2
07:08 13.6 °C 11.3 °C 1014.2 hPa West 3.2 km/h 6.4 km/h 86% 0.0 mm 44 W/m2
07:13 13.7 °C 11.4 °C 1014.6 hPa West 1.4 km/h 3.2 km/h 86% 0.0 mm 53 W/m2
07:18 13.7 °C 11.4 °C 1014.6 hPa NW 4.7 km/h 8 km/h 86% 0.0 mm 51 W/m2
07:23 13.9 °C 11.4 °C 1014.6 hPa West 1.4 km/h 3.2 km/h 85% 0.0 mm 56 W/m2
07:28 13.9 °C 11.6 °C 1014.6 hPa WNW 4.7 km/h 8 km/h 86% 0.0 mm 54 W/m2
07:33 14 °C 11.5 °C 1014.6 hPa NW 1.4 km/h 3.2 km/h 85% 0.0 mm 51 W/m2
07:38 14 °C 11.5 °C 1014.6 hPa West 1.4 km/h 8 km/h 85% 0.0 mm 49 W/m2
07:43 14 °C 11.5 °C 1014.6 hPa WSW 4.7 km/h 6.4 km/h 85% 0.0 mm 53 W/m2
07:48 13.9 °C 11.4 °C 1014.6 hPa WNW 1.4 km/h 8 km/h 85% 0.0 mm 56 W/m2
07:53 14 °C 11.5 °C 1014.6 hPa WNW 1.4 km/h 4.8 km/h 85% 0.0 mm 62 W/m2
07:59 14 °C 11.7 °C 1014.6 hPa WNW 3.2 km/h 3.2 km/h 86% 0.0 mm 67 W/m2
08:04 14.1 °C 11.8 °C 1014.6 hPa WNW 3.2 km/h 3.2 km/h 86% 0.0 mm 104 W/m2
08:09 14.2 °C 11.7 °C 1014.9 hPa NW 1.4 km/h 3.2 km/h 85% 0.0 mm 109 W/m2
08:14 14.4 °C 11.9 °C 1014.9 hPa WNW 1.4 km/h 3.2 km/h 85% 0.0 mm 79 W/m2
08:19 14.6 °C 11.9 °C 1014.9 hPa Calm   1.6 km/h 84% 0.0 mm 77 W/m2
08:24 14.8 °C 12.1 °C 1015.2 hPa WNW 1.4 km/h 1.6 km/h 84% 0.0 mm 76 W/m2
08:29 15.1 °C 12.2 °C 1015.2 hPa WNW 1.4 km/h 4.8 km/h 83% 0.0 mm 90 W/m2
08:34 15.3 °C 12.2 °C 1015.2 hPa NW 4.7 km/h 6.4 km/h 82% 0.0 mm 95 W/m2
08:39 15.6 °C 12.5 °C 1015.2 hPa North 3.2 km/h 3.2 km/h 82% 0.0 mm 105 W/m2
08:44 15.9 °C 12.6 °C 1015.2 hPa WNW 3.2 km/h 4.8 km/h 81% 0.0 mm 84 W/m2
08:49 16.3 °C 12.7 °C 1015.2 hPa NW 4.7 km/h 4.8 km/h 79% 0.0 mm 90 W/m2
08:54 16.3 °C 12.5 °C 1015.2 hPa East 3.2 km/h 6.4 km/h 78% 0.0 mm 88 W/m2
08:59 16.3 °C 12.3 °C 1015.2 hPa WNW 6.4 km/h 9.7 km/h 77% 0.0 mm 88 W/m2
09:04 16.3 °C 12.5 °C 1015.6 hPa NNW 4.7 km/h 4.8 km/h 78% 0.0 mm 188 W/m2
09:09 16.4 °C 12.6 °C 1015.6 hPa West 4.7 km/h 12.9 km/h 78% 0.0 mm 313 W/m2
09:14 16.5 °C 12.7 °C 1015.6 hPa NW 3.2 km/h 4.8 km/h 78% 0.0 mm 348 W/m2
09:19 16.6 °C 12.7 °C 1015.6 hPa West 3.2 km/h 12.9 km/h 78% 0.0 mm 359 W/m2
09:24 16.7 °C 12.6 °C 1015.6 hPa East 1.4 km/h 4.8 km/h 77% 0.0 mm 381 W/m2
09:29 16.8 °C 12.5 °C 1015.6 hPa East 4.7 km/h 11.3 km/h 76% 0.0 mm 385 W/m2
09:34 17 °C 12.7 °C 1015.6 hPa NNW 4.7 km/h 4.8 km/h 76% 0.0 mm 392 W/m2
09:39 17.1 °C 12.6 °C 1015.6 hPa North 4.7 km/h 4.8 km/h 75% 0.0 mm 415 W/m2
09:45 17.2 °C 12.7 °C 1015.6 hPa North 3.2 km/h 12.9 km/h 75% 0.0 mm 425 W/m2
09:50 17.3 °C 13 °C 1015.6 hPa NW 4.7 km/h 8 km/h 76% 0.0 mm 380 W/m2
09:55 17.5 °C 13 °C 1015.6 hPa NW 1.4 km/h 4.8 km/h 75% 0.0 mm 104 W/m2
10:00 17.6 °C 13.1 °C 1015.6 hPa WNW 3.2 km/h 11.3 km/h 75% 0.0 mm 155 W/m2
10:05 17.6 °C 12.9 °C 1015.6 hPa WNW 4.7 km/h 11.3 km/h 74% 0.0 mm 483 W/m2
10:10 17.6 °C 12.9 °C 1015.6 hPa WNW 6.4 km/h 12.9 km/h 74% 0.0 mm 508 W/m2
10:15 17.7 °C 13 °C 1015.6 hPa Calm   3.2 km/h 74% 0.0 mm 513 W/m2
10:20 17.9 °C 13.2 °C 1015.6 hPa ENE 12.9 km/h 12.9 km/h 74% 0.0 mm 527 W/m2
10:25 18.3 °C 13.2 °C 1015.6 hPa North 4.7 km/h 9.7 km/h 72% 0.0 mm 541 W/m2
10:30 18.3 °C 13.2 °C 1015.6 hPa West 4.7 km/h 6.4 km/h 72% 0.0 mm 545 W/m2
10:35 18.2 °C 13.1 °C 1015.6 hPa WNW 4.7 km/h 9.7 km/h 72% 0.0 mm 547 W/m2
10:40 18.2 °C 13.1 °C 1015.6 hPa North 3.2 km/h 4.8 km/h 72% 0.0 mm 571 W/m2
10:45 18.3 °C 13 °C 1015.6 hPa NW 1.4 km/h 11.3 km/h 71% 0.0 mm 589 W/m2
10:50 18.3 °C 13.2 °C 1015.9 hPa NE 6.4 km/h 8 km/h 72% 0.0 mm 594 W/m2
10:55 18.6 °C 13.5 °C 1015.9 hPa SSE 1.4 km/h 8 km/h 72% 0.0 mm 613 W/m2
11:00 18.8 °C 13.4 °C 1015.9 hPa SE 1.4 km/h 4.8 km/h 71% 0.0 mm 643 W/m2
11:05 18.9 °C 13.3 °C 1015.9 hPa NW 1.4 km/h 3.2 km/h 70% 0.0 mm 668 W/m2
11:10 18.9 °C 13.3 °C 1015.9 hPa North 6.4 km/h 6.4 km/h 70% 0.0 mm 661 W/m2
11:15 18.9 °C 13.3 °C 1015.9 hPa WNW 3.2 km/h 6.4 km/h 70% 0.0 mm 661 W/m2
11:20 19 °C 13.4 °C 1015.6 hPa WNW 1.4 km/h 4.8 km/h 70% 0.0 mm 694 W/m2
11:25 19.2 °C 13.4 °C 1015.9 hPa NW 4.7 km/h 12.9 km/h 69% 0.0 mm 710 W/m2
11:30 19.3 °C 13.7 °C 1015.6 hPa East 4.7 km/h 4.8 km/h 70% 0.0 mm 715 W/m2
11:35 19.7 °C 13.6 °C 1015.6 hPa WNW 6.4 km/h 11.3 km/h 68% 0.0 mm 729 W/m2
11:40 19.8 °C 13.5 °C 1015.9 hPa North 3.2 km/h 4.8 km/h 67% 0.0 mm 686 W/m2
11:45 19.9 °C 13.6 °C 1015.6 hPa SW 1.4 km/h 4.8 km/h 67% 0.0 mm 761 W/m2
11:50 19.9 °C 13.6 °C 1015.9 hPa WNW 6.4 km/h 6.4 km/h 67% 0.0 mm 269 W/m2
11:55 19.7 °C 13.2 °C 1015.6 hPa WNW 1.4 km/h 4.8 km/h 66% 0.0 mm 176 W/m2
12:00 19.7 °C 13.2 °C 1015.9 hPa West 6.4 km/h 6.4 km/h 66% 0.0 mm 800 W/m2
12:05 19.8 °C 13 °C 1015.6 hPa West 3.2 km/h 9.7 km/h 65% 0.0 mm 809 W/m2
12:10 20 °C 13 °C 1015.6 hPa NW 1.4 km/h 4.8 km/h 64% 0.0 mm 221 W/m2
12:15 20 °C 12.7 °C 1015.9 hPa WSW 3.2 km/h 6.4 km/h 63% 0.0 mm 413 W/m2
12:20 19.9 °C 12.6 °C 1015.9 hPa NE 3.2 km/h 3.2 km/h 63% 0.0 mm 190 W/m2
12:26 20.4 °C 13.4 °C 1015.9 hPa East 3.2 km/h 4.8 km/h 64% 0.0 mm 888 W/m2
12:31 20.8 °C 13.3 °C 1015.9 hPa ESE 1.4 km/h 3.2 km/h 62% 0.0 mm 905 W/m2
12:36 21.3 °C 13.2 °C 1015.6 hPa NW 3.2 km/h 8 km/h 60% 0.0 mm 932 W/m2
12:41 21.4 °C 13.6 °C 1015.6 hPa Calm   1.6 km/h 61% 0.0 mm 849 W/m2
12:46 21.5 °C 13.1 °C 1015.9 hPa WNW 6.4 km/h 11.3 km/h 59% 0.0 mm 299 W/m2
12:51 20.9 °C 12.8 °C 1015.9 hPa West 3.2 km/h 6.4 km/h 60% 0.0 mm 183 W/m2
12:56 20.6 °C 12.8 °C 1015.9 hPa WNW 1.4 km/h 9.7 km/h 61% 0.0 mm 186 W/m2
13:01 20.4 °C 12.6 °C 1015.9 hPa NW 1.4 km/h 1.6 km/h 61% 0.0 mm 251 W/m2
13:06 20.3 °C 12.8 °C 1015.9 hPa Calm   6.4 km/h 62% 0.0 mm 176 W/m2
13:11 20.6 °C 12.8 °C 1015.9 hPa NNW 1.4 km/h 1.6 km/h 61% 0.0 mm 287 W/m2
13:16 20.8 °C 12.2 °C 1015.9 hPa North 1.4 km/h 4.8 km/h 58% 0.0 mm 909 W/m2
13:21 21.3 °C 12.7 °C 1015.6 hPa ESE 6.4 km/h 8 km/h 58% 0.0 mm 916 W/m2
13:26 21.8 °C 12.9 °C 1015.6 hPa North 1.4 km/h 4.8 km/h 57% 0.0 mm 953 W/m2
13:31 22.1 °C 12.6 °C 1015.6 hPa NNE 7.9 km/h 9.7 km/h 55% 0.0 mm 366 W/m2
13:36 22.2 °C 12.7 °C 1015.6 hPa West 4.7 km/h 9.7 km/h 55% 0.0 mm 932 W/m2
13:42 22.2 °C 12.7 °C 1015.6 hPa WNW 4.7 km/h 8 km/h 55% 0.0 mm 267 W/m2
13:47 22.1 °C 12.9 °C 1015.6 hPa WSW 3.2 km/h 9.7 km/h 56% 0.0 mm 253 W/m2
13:52 21.9 °C 13 °C 1015.6 hPa NW 1.4 km/h 3.2 km/h 57% 0.0 mm 267 W/m2
13:57 22.1 °C 12.9 °C 1015.6 hPa NW 3.2 km/h 6.4 km/h 56% 0.0 mm 974 W/m2
14:02 22.7 °C 12.6 °C 1015.6 hPa ENE 1.4 km/h 4.8 km/h 53% 0.0 mm 1021 W/m2
14:07 23 °C 12.6 °C 1015.6 hPa North 3.2 km/h 4.8 km/h 52% 0.0 mm 675 W/m2
14:12 22.9 °C 12.5 °C 1015.6 hPa WNW 7.9 km/h 9.7 km/h 52% 0.0 mm 675 W/m2
14:17 22.6 °C 10.7 °C 1015.6 hPa WNW 3.2 km/h 9.7 km/h 47% 0.0 mm 232 W/m2
14:22 22.2 °C 11 °C 1015.6 hPa NW 1.4 km/h 6.4 km/h 49% 0.0 mm 914 W/m2
14:27 22.5 °C 11.9 °C 1015.6 hPa WSW 4.7 km/h 6.4 km/h 51% 0.0 mm 905 W/m2
14:32 22.7 °C 11.7 °C 1015.6 hPa WSW 11.1 km/h 11.3 km/h 50% 0.0 mm 879 W/m2
14:37 22.7 °C 11.7 °C 1015.6 hPa SW 3.2 km/h 6.4 km/h 50% 0.0 mm 889 W/m2
14:42 22.7 °C 11.7 °C 1015.6 hPa Calm   3.2 km/h 50% 0.0 mm 881 W/m2
14:47 23.1 °C 12.1 °C 1015.6 hPa NE 4.7 km/h 6.4 km/h 50% 0.0 mm 193 W/m2
14:52 23.1 °C 11.8 °C 1015.6 hPa WSW 1.4 km/h 4.8 km/h 49% 0.0 mm 148 W/m2
14:57 22.9 °C 11.6 °C 1015.6 hPa NW 3.2 km/h 4.8 km/h 49% 0.0 mm 146 W/m2
15:02 22.8 °C 11.5 °C 1015.6 hPa West 4.7 km/h 6.4 km/h 49% 0.0 mm 160 W/m2
15:07 22.5 °C 11.6 °C 1015.6 hPa NW 3.2 km/h 3.2 km/h 50% 0.0 mm 188 W/m2
15:12 22.3 °C 11.7 °C 1015.6 hPa West 1.4 km/h 6.4 km/h 51% 0.0 mm 251 W/m2
15:17 22.5 °C 10.9 °C 1015.6 hPa WNW 1.4 km/h 4.8 km/h 48% 0.0 mm 863 W/m2
15:22 23.1 °C 11.2 °C 1015.6 hPa WSW 3.2 km/h 6.4 km/h 47% 0.0 mm 844 W/m2
15:27 23.4 °C 11.8 °C 1015.6 hPa NE 3.2 km/h 3.2 km/h 48% 0.0 mm 828 W/m2
15:32 23.7 °C 11.7 °C 1015.6 hPa WNW 3.2 km/h 3.2 km/h 47% 0.0 mm 826 W/m2
15:37 23.9 °C 11.2 °C 1015.6 hPa WNW 6.4 km/h 11.3 km/h 45% 0.0 mm 846 W/m2
15:42 23.9 °C 11.6 °C 1015.6 hPa NW 7.9 km/h 9.7 km/h 46% 0.0 mm 786 W/m2
15:47 23.8 °C 11.5 °C 1015.6 hPa West 6.4 km/h 9.7 km/h 46% 0.0 mm 782 W/m2
15:52 23.8 °C 11.5 °C 1015.2 hPa NW 3.2 km/h 9.7 km/h 46% 0.0 mm 766 W/m2
15:57 23.9 °C 10.9 °C 1015.2 hPa West 1.4 km/h 9.7 km/h 44% 0.0 mm 756 W/m2
16:02 24.1 °C 11.8 °C 1015.6 hPa West 3.2 km/h 11.3 km/h 46% 0.0 mm 770 W/m2
16:07 24.3 °C 10.9 °C 1015.2 hPa WNW 3.2 km/h 11.3 km/h 43% 0.0 mm 744 W/m2
16:12 24.2 °C 11.5 °C 1015.2 hPa West 3.2 km/h 6.4 km/h 45% 0.0 mm 752 W/m2
16:17 24.2 °C 11.2 °C 1015.2 hPa West 1.4 km/h 11.3 km/h 44% 0.0 mm 721 W/m2
16:22 24.3 °C 10.6 °C 1015.2 hPa NW 4.7 km/h 12.9 km/h 42% 0.0 mm 731 W/m2
16:27 24.4 °C 10.7 °C 1015.2 hPa WNW 6.4 km/h 8 km/h 42% 0.0 mm 738 W/m2
16:32 24.4 °C 11.4 °C 1015.2 hPa WSW 7.9 km/h 11.3 km/h 44% 0.0 mm 742 W/m2
16:37 24.3 °C 10.9 °C 1015.2 hPa WSW 6.4 km/h 11.3 km/h 43% 0.0 mm 717 W/m2
16:42 24.3 °C 10.9 °C 1015.2 hPa WNW 7.9 km/h 8 km/h 43% 0.0 mm 715 W/m2
16:47 24.6 °C 11.2 °C 1015.2 hPa West 6.4 km/h 8 km/h 43% 0.0 mm 684 W/m2
16:52 24.3 °C 11.3 °C 1015.2 hPa WNW 13 km/h 16.1 km/h 44% 0.0 mm 680 W/m2
16:57 24.3 °C 11.3 °C 1015.2 hPa West 14.3 km/h 14.5 km/h 44% 0.0 mm 680 W/m2
17:02 24.2 °C 11.2 °C 1015.2 hPa WNW 7.9 km/h 14.5 km/h 44% 0.0 mm 656 W/m2
17:07 23.8 °C 11.2 °C 1015.2 hPa NW 4.7 km/h 4.8 km/h 45% 0.0 mm 113 W/m2
17:12 23.7 °C 10.7 °C 1015.2 hPa WSW 3.2 km/h 4.8 km/h 44% 0.0 mm 621 W/m2
17:17 24 °C 11 °C 1015.2 hPa WNW 4.7 km/h 12.9 km/h 44% 0.0 mm 589 W/m2
17:22 24.3 °C 10.6 °C 1015.2 hPa WNW 3.2 km/h 6.4 km/h 42% 0.0 mm 582 W/m2
17:27 24.5 °C 10.7 °C 1015.2 hPa NW 3.2 km/h 12.9 km/h 42% 0.0 mm 570 W/m2
17:32 24.7 °C 10.6 °C 1015.2 hPa WSW 1.4 km/h 8 km/h 41% 0.0 mm 561 W/m2
17:37 24.9 °C 11.1 °C 1015.2 hPa West 3.2 km/h 4.8 km/h 42% 0.0 mm 559 W/m2
17:42 25.2 °C 11.4 °C 1015.2 hPa West 4.7 km/h 12.9 km/h 42% 0.0 mm 533 W/m2
17:47 25.1 °C 10.9 °C 1014.9 hPa WNW 9.7 km/h 9.7 km/h 41% 0.0 mm 503 W/m2
17:52 25.1 °C 10.6 °C 1015.2 hPa North 4.7 km/h 6.4 km/h 40% 0.0 mm 522 W/m2
17:57 25 °C 10.5 °C 1014.9 hPa WNW 3.2 km/h 4.8 km/h 40% 0.0 mm 504 W/m2
18:02 24.9 °C 10.7 °C 1014.9 hPa NNW 3.2 km/h 4.8 km/h 41% 0.0 mm 480 W/m2
18:07 25 °C 10.5 °C 1014.9 hPa West 3.2 km/h 9.7 km/h 40% 0.0 mm 469 W/m2
18:12 25.1 °C 10.6 °C 1014.9 hPa NE 3.2 km/h 4.8 km/h 40% 0.0 mm 454 W/m2
18:17 25.2 °C 10.6 °C 1014.9 hPa West 4.7 km/h 6.4 km/h 40% 0.0 mm 424 W/m2
18:22 25.2 °C 10.6 °C 1014.9 hPa WNW 6.4 km/h 6.4 km/h 40% 0.0 mm 417 W/m2
18:27 25.1 °C 10.2 °C 1015.2 hPa WNW 4.7 km/h 9.7 km/h 39% 0.0 mm 399 W/m2
18:32 24.9 °C 10.7 °C 1015.2 hPa Calm   6.4 km/h 41% 0.0 mm 403 W/m2
18:37 25.1 °C 10.6 °C 1015.2 hPa NNW 3.2 km/h 14.5 km/h 40% 0.0 mm 404 W/m2
18:42 24.9 °C 10.4 °C 1015.2 hPa WNW 4.7 km/h 6.4 km/h 40% 0.0 mm 378 W/m2
18:48 24.7 °C 10.2 °C 1015.2 hPa West 9.7 km/h 11.3 km/h 40% 0.0 mm 179 W/m2
18:53 24.3 °C 10.6 °C 1015.2 hPa West 3.2 km/h 4.8 km/h 42% 0.0 mm 62 W/m2
18:58 23.9 °C 10.2 °C 1015.2 hPa NW 3.2 km/h 11.3 km/h 42% 0.0 mm 60 W/m2
19:03 23.8 °C 10.8 °C 1015.2 hPa West 3.2 km/h 4.8 km/h 44% 0.0 mm 258 W/m2
19:08 23.9 °C 10.2 °C 1015.2 hPa West 3.2 km/h 6.4 km/h 42% 0.0 mm 232 W/m2
19:13 24.2 °C 10.5 °C 1015.2 hPa NW 1.4 km/h 4.8 km/h 42% 0.0 mm 221 W/m2
19:18 24.3 °C 10.6 °C 1015.2 hPa West 3.2 km/h 6.4 km/h 42% 0.0 mm 123 W/m2
19:23 24.3 °C 10.6 °C 1015.2 hPa WNW 1.4 km/h 3.2 km/h 42% 0.0 mm 125 W/m2
19:28 24.4 °C 10.3 °C 1015.2 hPa West 1.4 km/h 1.6 km/h 41% 0.0 mm 167 W/m2
19:33 24.5 °C 10.4 °C 1015.2 hPa West 1.4 km/h 3.2 km/h 41% 0.0 mm 148 W/m2
19:38 24.6 °C 10.5 °C 1015.2 hPa West 1.4 km/h 6.4 km/h 41% 0.0 mm 167 W/m2
19:43 24.6 °C 11.2 °C 1015.2 hPa Calm   1.6 km/h 43% 0.0 mm 165 W/m2
19:48 24.6 °C 12.5 °C 1015.2 hPa Calm   4.8 km/h 47% 0.0 mm 171 W/m2
19:53 24.6 °C 12.9 °C 1015.2 hPa Calm     48% 0.0 mm 149 W/m2
19:58 24.6 °C 12.2 °C 1015.2 hPa West 1.4 km/h 3.2 km/h 46% 0.0 mm 125 W/m2
20:03 24.5 °C 11.4 °C 1015.2 hPa West 1.4 km/h 4.8 km/h 44% 0.0 mm 107 W/m2
20:08 24.2 °C 11.2 °C 1015.2 hPa WSW 3.2 km/h 4.8 km/h 44% 0.0 mm 90 W/m2
20:13 24 °C 11.3 °C 1015.2 hPa WSW 1.4 km/h 1.6 km/h 45% 0.0 mm 84 W/m2
20:18 23.9 °C 11.2 °C 1015.6 hPa WSW 1.4 km/h 1.6 km/h 45% 0.0 mm 62 W/m2
20:23 23.7 °C 11.1 °C 1015.2 hPa WSW 1.4 km/h 1.6 km/h 45% 0.0 mm 63 W/m2
20:28 23.4 °C 11.1 °C 1015.2 hPa West 3.2 km/h 4.8 km/h 46% 0.0 mm 30 W/m2
20:33 23 °C 10.8 °C 1015.6 hPa West 1.4 km/h 4.8 km/h 46% 0.0 mm 25 W/m2
20:38 22.5 °C 10.9 °C 1015.6 hPa West 1.4 km/h 3.2 km/h 48% 0.0 mm 21 W/m2
20:44 22.2 °C 11 °C 1015.6 hPa West 1.4 km/h 3.2 km/h 49% 0.0 mm 18 W/m2
20:49 21.8 °C 10.6 °C 1015.6 hPa Calm   3.2 km/h 49% 0.0 mm 14 W/m2
20:54 21.6 °C 10.7 °C 1015.6 hPa Calm   1.6 km/h 50% 0.0 mm 12 W/m2
20:59 21.3 °C 10.8 °C 1015.6 hPa WSW 1.4 km/h 3.2 km/h 51% 0.0 mm 12 W/m2
21:04 21.1 °C 11.1 °C 1015.6 hPa Calm   1.6 km/h 53% 0.0 mm 9 W/m2
21:09 20.8 °C 11.2 °C 1015.6 hPa Calm     54% 0.0 mm 5 W/m2
21:14 20.5 °C 11.1 °C 1015.6 hPa Calm     55% 0.0 mm 0 W/m2
21:19 20.2 °C 11.1 °C 1015.6 hPa Calm   1.6 km/h 56% 0.0 mm 0 W/m2
21:24 19.9 °C 11.1 °C 1015.6 hPa Calm     57% 0.0 mm 0 W/m2
21:29 19.6 °C 11.1 °C 1015.6 hPa Calm     58% 0.0 mm 0 W/m2
21:34 19.3 °C 11.1 °C 1015.6 hPa Calm     59% 0.0 mm 0 W/m2
21:39 19.1 °C 10.6 °C 1015.6 hPa Calm     58% 0.0 mm 0 W/m2
21:44 18.8 °C 10.6 °C 1015.9 hPa Calm     59% 0.0 mm 0 W/m2
21:49 18.7 °C 10.8 °C 1015.6 hPa Calm     60% 0.0 mm 0 W/m2
21:54 18.4 °C 11 °C 1015.9 hPa Calm     62% 0.0 mm 0 W/m2
21:59 18.2 °C 10.8 °C 1015.9 hPa Calm     62% 0.0 mm 0 W/m2
22:04 18.1 °C 10.7 °C 1015.9 hPa Calm     62% 0.0 mm 0 W/m2
22:09 17.8 °C 10.7 °C 1015.9 hPa Calm   1.6 km/h 63% 0.0 mm 0 W/m2
22:14 17.7 °C 10.8 °C 1015.9 hPa Calm     64% 0.0 mm 0 W/m2
22:19 17.4 °C 10.3 °C 1015.9 hPa Calm     63% 0.0 mm 0 W/m2
22:24 17.3 °C 10.4 °C 1016.3 hPa Calm     64% 0.0 mm 0 W/m2
22:29 17.1 °C 10.2 °C 1016.3 hPa Calm   1.6 km/h 64% 0.0 mm 0 W/m2
22:34 17.1 °C 10.5 °C 1016.3 hPa Calm     65% 0.0 mm 0 W/m2
22:39 16.9 °C 10.3 °C 1016.3 hPa Calm   1.6 km/h 65% 0.0 mm 0 W/m2
22:44 16.8 °C 10.4 °C 1015.9 hPa Calm     66% 0.0 mm 0 W/m2
22:49 16.7 °C 10.5 °C 1016.3 hPa Calm     67% 0.0 mm 0 W/m2
22:54 16.6 °C 10.7 °C 1016.3 hPa Calm     68% 0.0 mm 0 W/m2
22:59 16.5 °C 10.8 °C 1016.3 hPa Calm     69% 0.0 mm 0 W/m2
23:04 16.3 °C 10.8 °C 1016.3 hPa Calm     70% 0.0 mm 0 W/m2
23:09 16.2 °C 10.3 °C 1016.3 hPa Calm     68% 0.0 mm 0 W/m2
23:14 16.1 °C 10.2 °C 1016.3 hPa Calm     68% 0.0 mm 0 W/m2
23:19 16.1 °C 10.6 °C 1016.3 hPa Calm     70% 0.0 mm 0 W/m2
23:24 15.9 °C 10.4 °C 1016.3 hPa Calm     70% 0.0 mm 0 W/m2
23:29 15.8 °C 10.3 °C 1016.3 hPa Calm     70% 0.0 mm 0 W/m2
23:34 15.7 °C 10.2 °C 1016.3 hPa Calm     70% 0.0 mm 0 W/m2
23:39 15.6 °C 10.4 °C 1016.3 hPa Calm     71% 0.0 mm 0 W/m2
23:44 15.4 °C 10.4 °C 1016.3 hPa Calm     72% 0.0 mm 0 W/m2
23:50 15.3 °C 10.3 °C 1016.3 hPa Calm     72% 0.0 mm 0 W/m2
23:55 15.2 °C 10.2 °C 1016.3 hPa Calm     72% 0.0 mm 0 W/m2
Juneau County Weather
Compliments of Weather Underground - 4 mb